EHGG/GRQ METAR and TAF weather

Enter ICAO airport designator
Station Type Date Time Source
EHGG METAR 2019/08/19 01:55 UTC NOAA

EHGG 190155Z AUTO 20009KT 9999 NSC 14/12 Q1009


Station Type Date Time Source
EHGG Decoded METAR 2019/08/19 01:55 UTC NOAA

Station name not available
Aug 18, 2019 - 09:55 PM EDT / 2019.08.19 0155 UTC
Wind: from the SSW (200 degrees) at 10 MPH (9 KT):0
Visibility: greater than 7 mile(s):0
Temperature: 57 F (14 C)
Dew Point: 53 F (12 C)
Relative Humidity: 87%
Pressure (altimeter): 29.80 in. Hg (1009 hPa)
ob: EHGG 190155Z AUTO 20009KT 9999 NSC 14/12 Q1009
cycle: 2

Station Type Date Time Source
EHGG TAF 2019/08/18 18:27 UTC NOAA

TAF EHGG 181721Z 1818/1924 23010KT 9999 SCT030
BECMG 1818/1821 21008KT PROB30 1903/1907 BKN008 PROB40
TEMPO 1908/1917 24020G30KT 6000 SHRA SCT025CB
BECMG 1910/1913 24017G27KT
BECMG 1915/1918 24010KT
BECMG 1918/1921 20007KT

Example: see airport list